Terminal Aerodrome Forecast
Issued by NWS Albany, NY

Home | Current Version | Previous Version | Text Only | Print | Product List | Glossary On
Versions: 1 2 3 4 5 6 7 8 9 10 11 12 13 14 15 16 17 18 19 20 21 22 23 24
000
FTUS41 KALY 040538
TAFALB
TAF
KALB 040538Z 0406/0506 00000KT P6SM VCSH SCT050 BKN100
     FM040800 VRB03KT 5SM BR SCT050 SCT100
     FM041200 21005KT P6SM SCT050 SCT090
     FM041500 25008G16KT P6SM BKN050 PROB30 0415/0420 4SM -TSRA BR
      SCT025CB BKN050
     FM042000 29010KT P6SM SCT050 BKN100
     FM050000 28007KT P6SM SCT050 SCT100=

USA.gov is the U.S. government's official web portal to all federal, state and local government web resources and services.